AddedLatest Added eBooks:

  1. 2019-06-09Dumbo 1941 1080p BluRay H264 AAC-RARBG
  2. 2019-06-09Sketchbooks - April 2019
  3. 2019-06-09MacLife UK - June 2019
  4. 2019-06-09The Beach Bum 2019 1080p WEBRip x264-YIFY
  5. 2019-06-09The Complete Internet Security Manual - June 2019
  6. 2019-06-09Windows Help & Advice - June 2019 - Removed
  7. 2019-06-09Flea Market Style - July 2019
  8. 2019-06-09NZ4WD - June 2019
  9. 2019-06-09The Complete Cloud Computing Manual - May 2019
  10. 2019-06-09The Complete MacBook Manual - May 2019
  11. 2019-06-09The Complete Building Your Own PC Manual - May 2019
  12. 2019-06-09Computer Arts - June 2019 - Removed
  13. 2019-06-09Going Places - June 2019
  14. 2019-06-09Teach Yourself Photoshop - June 2019
  15. 2019-06-09I Am Mother 2019 720p NF WEB-DL x264-MkvCage
  16. 2019-06-09America's First Freedom - June 2019
  17. 2019-06-09Bikes Etc - July 2019
  18. 2019-06-09The Hockey News - July 22, 2019
  19. 2019-06-09Mapplethorpe 2018 1080p WEBRip x264 AAC-RARBG
  20. 2019-06-09Computeractive - 08 May 2019
  21. 2019-06-09Tattoo Master - 16 May 2019
  22. 2019-06-09Popular Mechanics South Africa - June 2019
  23. 2019-06-09Computer Arts - June 2019 - Removed
  24. 2019-06-09Sew - May 2019
  25. 2019-06-09Saga Magazine - May 2019
  26. 2019-06-09OK! Magazine UK - 03 June 2019
  27. 2019-06-09QX Magazine - 22 May 2019
  28. 2019-06-09The New Yorker - June 03, 2019
  29. 2019-06-09Secrets In A Small Town 2019 1080p WEBRip x264-YIFY
  30. 2019-06-09A Yeti Adventure 2017 1080p WEBRip x264-YIFY
  31. 2019-06-09Elisa Y Marcela 2019 1080p WEBRip x264-YIFY
  32. 2019-06-09Beneath The Leaves 2019 1080p WEBRip x264-YIFY
  33. 2019-06-09Changeland 2019 720p WEBRip x264-YIFY
  34. 2019-06-09Muse 2019 720p WEBRip x264-YIFY
  35. 2019-06-09The Package 2018 720p WEBRip x264-YIFY
  36. 2019-06-09Mapplethorpe 2018 720p WEBRip x264-YIFY
  37. 2019-06-09Project Ithaca 2019 1080p WEBRip x264-YIFY - Removed
  38. 2019-06-09Cadence SPB Allegro and OrCAD v17.20.055 Hotfix Only (x64)
  39. 2019-06-09Gpg4win 3.1.8 Multilingual
  40. 2019-06-09Serif Affinity Designer 1.7.0.380 Beta (x64) Multilingual
  41. 2019-06-09Wondershare Filmora 9.1.3.22 (x64) Multilingual
  42. 2019-06-09Creating and Animating a 3D Object with Adobe Photoshop and Cinema 4D Lite
  43. 2019-06-09Dumbo 1941 1080p BluRay x264-LCHD
  44. 2019-06-09Learning Azure Management Tools
  45. 2019-06-09Landscape Cyanotype Photos with a Paper Negative
  46. 2019-06-09Learn Photoshop 3D and create unimaginable graphics
  47. 2019-06-09Oculus 2013 1080p BluRay H264 AAC-RARBG
  48. 2019-06-09Apeaksoft DVD Creator 1.0.20 Multilingual
  49. 2019-06-09Dumbo 1941 720p BluRay H264 AAC-RARBG
  50. 2019-06-09Apeaksoft Phone Transfer 1.0.12 Multilingual
  51. 2019-06-09Apeaksoft Screen Recorder 1.2.28 Multilingual
  52. 2019-06-09Brothers 2009 720p BluRay H264 AAC-RARBG
  53. 2019-06-09Apeaksoft Slideshow Maker 1.0.12 Multilingual
  54. 2019-06-09ConfigureDefender 2.0.0.1
  55. 2019-06-09Craft Director Studio 19.1.4 (x64)
  56. 2019-06-09DPT THINKDESIGN 2019.1
  57. 2019-06-09Anchors Up 2017 720p BluRay x264 AC3 5 1-KLND
  58. 2019-06-09Anthem of A Teenage Prophet 2018 720p BluRay x264-HANDJOB
  59. 2019-06-09Backdraft 2 2019 720p BluRay DD5 1 x264-iFT
  60. 2019-06-09Battle of The Bulge Wunderland 2018 EXTENDED 720p BluRay x264-VIRGO
  61. 2019-06-09Efficient Efficcess 5.60 Build 551 Multilingual
  62. 2019-06-09Beyond White Space 2018 720p BluRay x264-GETiT
  63. 2019-06-09Blood Brother 2018 720p BluRay DD5 1 x264-playHD
  64. 2019-06-09Captain Marvel 2019 BluRay 720p x264-SPARKS
  65. 2019-06-09Captive State 2019 BluRay 720p x264-MAYHEM - Removed
  66. 2019-06-09Efficient To-Do List 5.60 Build 551 Multilingual
  67. 2019-06-09Dragged Across Concrete 2018 1080p BluRay DTS x264-SbR - Removed
  68. 2019-06-09Drunk Parents 2019 720p BluRay x264-NODLABS
  69. 2019-06-09Egg 2018 BluRay 1080p x264-BRMP
  70. 2019-06-09Escape Room 2019 REPACK BluRay 1080p x264-DRONES
  71. 2019-06-09Fireman Sam Set for Action 2018 BluRay 720p x264-WISDOM
  72. 2019-06-09Gloria Bell 2018 720p BluRay x264-DRONES
  73. 2019-06-09Green Book 2018 PROPER 1080p BluRay x264-iSm - Removed
  74. 2019-06-09IDM UEStudio 19.10.0.14
  75. 2019-06-09Greta 2018 BluRay 720p x264-GECKOS - Removed
  76. 2019-06-09Matchstick Men 2003 1080p BluRay H264 AAC-RARBG
  77. 2019-06-09How to Train Your Dragon The Hidden World 2019 720p BluRay x264-WiKi
  78. 2019-06-09Isnt It Romantic 2019 BluRay 720p DD5 1 x264-SbR
  79. 2019-06-09The Break Up 2007 1080p BluRay H264 AAC-RARBG
  80. 2019-06-09Justice League vs The Fatal Five 2019 1080p BluRay DD5 1 x264-RightSiZE
  81. 2019-06-09Kong Skull Island 2017 720p BluRay DD5 1 x264-TayTO
  82. 2019-06-09Mary Poppins Returns 2018 720p BluRay x264-WiKi
  83. 2019-06-09IdImager Photo Supreme 4.3.4.2141 Multilingual
  84. 2019-06-09The Call 2013 1080p BluRay H264 AAC-RARBG
  85. 2019-06-09Mary Shelley 2017 BluRay 1080p x264 DTS-WiKi
  86. 2019-06-09Mia and The White Lion 2018 720p BluRay x264-WiKi - Removed
  87. 2019-06-09Never Grow Old 2019 BluRay 1080p x264-ROVERS
  88. 2019-06-09Polaroid 2019 1080p BluRay x264-NIKT0
  89. 2019-06-09Red Island 2018 720p BluRay x264-GUACAMOLE
  90. 2019-06-09Rottentail 2018 720p BluRay x264-HANDJOB
  91. 2019-06-09Second Act 2018 1080p BluRay x264-CHD
  92. 2019-06-09Shed Of The Dead 2019 BluRay 1080p x264-GUACAMOLE
  93. 2019-06-09Initial Audio Master Suite 1.0.0
  94. 2019-06-09Snowbound 2017 720p BluRay x264-GETiT
  95. 2019-06-09Spider-Man Into the Spider-Verse 2018 1080p UHD BluRay DDP x265 D-Z0N3
  96. 2019-06-09The Favourite 2018 720p BluRay DD5 1 x264-TayTO
  97. 2019-06-09The Humanity Bureau 2017 BluRay 720p x264-VETO
  98. 2019-06-0926 Knots
  99. 2019-06-09Bayou Caviar 2018 1080p BluRay DD5 1 x264-iFT

More eBooks ...

41170 pages, 4117000 eBooks in total, list all pages->

Search free ebooks in ebookee.com!
Back to Top